Airfield :
LOGIN :

Register | Disclaimer

   EN    FR    IT 

 










Legend :    VFR   Marginal VFR   IFR   Intensive IFR   Very Intensive IFR
Visi :
Ceiling :
>= 8 km
>= 3000ft
5 to 8 km
1000 to 3000 ft
1500m to 5 km
500 to 1000 ft
800 to 1500m
200 to 500 ft
< 800m
< 200 ft
Symbols :   Thunderstorms  Fog  Heavy snow  Heavy precipitations  Wind > 20 kt
SIGMETs :     Misc.  Thunderstorms  Icing  Turbulence  Mountain Waves  Volcanic Ashes






- Airport Elevation : 408 ft
- IATA code : FKB


EDSB - Karlsruhe Baden Baden

CURRENT METAR :
  • 061450Z 29004KT CAVOK 05/04 Q1016

EXPIRED METARs :
  • 061420Z 28003KT CAVOK 06/04 Q1016
  • 061350Z 23008KT CAVOK 08/04 Q1016
  • 061320Z 22010KT CAVOK 08/03 Q1017
  • 061250Z 22009KT CAVOK 07/03 Q1017
  • 061220Z 28004KT 210V320 9000 NSC 05/03 Q1018

TAF TAF EDSB
Valid from the 06 at 12:00 until the 07 at 12:00 UTC


061100Z 0612/0712 22008KT 6000 SCT003
PROB30
TEMPO 0612/0614 3000 BR BKN002
BECMG 0619/0621 20015KT
TEMPO 0620/0702 4000 RA BKN014
TEMPO 0621/0706 21020G30KT
TEMPO 0702/0706 BKN014
BECMG 0706/0708 21010KT



MET'MAP, your aeronautical weather chart ! - Copyright ORBIFLY December 2007 - Disclaimer

ORBIFLY MET'MAP TEAM :

Programming & Development : Alexandra Zaïnal
Concept & original design : Baudouin d'Aumeries
Assistance for programming : Marc-Olivier Méhu
Technical & hardware support : Manuel Goepfert

Contact : metmap@orbifly.com




SOURCES & CREDITS :

   NOAA